YCAS

Casino Airport

Australia
METAR YCAS 190500Z AUTO 36013KT //// // ////// 29/10 Q1009
Observed Flight Rules
Sep-19 @ 05:00 UTC (43 minutes ago)
Wind
360° at 13 knots
Temperatures Readings
Current 29°C / 84°F
Dewpoint 10°C / 50°F
Humidity 31%
Altimeter 29.79" Hg
Pressure 1009 hPa
Elevation 26
METAR YCAS 190500Z AUTO 36013KT //// // ////// 29/10 Q1009
Observed Flight Rules
Sep-19 @ 05:00 UTC
(43 minutes ago)
Wind
360° at 13 knots
Temperature Dewpoint
29°C / 84°F 10°C / 50°F
Humidity Altimeter Pressure
31% 29.79" Hg 1009 hPa